Jundiai, Brazil
Current Conditions -  °F | °C
As of 7:25 PM on Monday 24 Nov 2014 (Local Time) from SBKP Reporting Station
Thunderstorm Thunderstorm  
Wind Chill: 72°   Ceiling: 2000
Heat Index: 72°   Visibility: 2.5mi
Dew Point: 70°   Wind: 5mph
Humidity: 94%   Direction: 110°ESE
Pressure: NA   Gusts: NA
Location:  23.2°S, 46.88°W
Report Text: SBKP 242125Z 11004KT 4000 -TSRA BKN020 FEW050CB OVC080 22/21 Q1014 RERA
Loading
Personal Weather Stations






























Interactive Weather Map New forecast layout! Learn more

10-Day Weather Forecast

Advertisements
Track Severe Weather on mobile